Latest Weather Observations for Kiama

IDN60801

Issued at 5:02 pm EST Friday 6 May 2016 (issued every 30 minutes, with the page automatically refreshed every 10 minutes)

About weather observations | Map of weather stations | Latest weather observations for NSW | Other Formats
Station Details ID: 068242 Name: KIAMA (BOMBO HEADLAND) Lat: -34.65 Lon: 150.86 Height: 15.5 m
Data from the previous 72 hours. | See also: Recent months at Kiama
Date/Time
EST
Temp
°C
App
Temp
°C
Dew
Point
Rel
Hum
%
Delta-T
°C
Wind Press
QNH
hPa
Press
MSL
hPa
Rain
since 9 am
mm
Dir
 
Spd
km/h
Gust
km/h
Spd
kts
Gust
kts
06/05:00pm 20.2 20.4 14.3 69 3.4 NNE 6 6 3 3 - - 0.0
06/04:30pm 21.2 21.2 13.6 62 4.4 NNE 6 7 3 4 - - 0.0
06/04:00pm 21.9 22.1 14.3 62 4.4 NNE 6 9 3 5 - - 0.0
06/03:30pm 22.5 22.6 11.6 50 6.1 NE 2 6 1 3 - - 0.0
06/03:00pm 22.4 22.0 11.2 49 6.2 E 4 6 2 3 - - 0.0
06/02:30pm 22.3 22.9 14.2 60 4.7 E 4 6 2 3 - - 0.0
06/02:00pm 22.5 22.5 13.6 57 5.2 E 6 7 3 4 - - 0.0
06/01:30pm 22.5 22.6 14.4 60 4.8 E 7 11 4 6 - - 0.0
06/01:00pm 23.9 24.3 15.4 59 5.1 NE 7 11 4 6 - - 0.0
06/12:30pm 23.4 23.5 14.4 57 5.3 ENE 7 13 4 7 - - 0.0
06/12:00pm 23.5 23.2 13.4 53 5.9 NNE 7 13 4 7 - - 0.0
06/11:30am 23.3 22.8 12.6 51 6.1 NNE 7 9 4 5 - - 0.0
06/11:00am 22.8 21.7 11.8 50 6.2 NNE 9 13 5 7 - - 0.0
06/10:30am 22.5 21.9 12.4 52 5.7 NE 7 11 4 6 - - 0.0
06/10:00am 22.2 21.9 12.7 55 5.4 SE 6 9 3 5 - - 0.0
06/09:30am 21.8 21.5 11.5 52 5.7 WSW 4 7 2 4 - - 0.0
06/09:00am 21.5 19.6 9.1 45 6.6 W 9 15 5 8 - - 0.0
06/08:30am 20.4 18.8 8.7 47 6.1 SW 7 11 4 6 - - 0.0
06/08:00am 20.5 17.2 8.2 45 6.4 W 15 28 8 15 - - 0.0
06/07:30am 19.6 16.7 8.0 47 6.0 WNW 13 19 7 10 - - 0.0
06/07:00am 18.1 15.5 7.8 51 5.2 WSW 11 17 6 9 - - 0.0
06/06:30am 18.1 15.2 8.1 52 5.1 WSW 13 20 7 11 - - 0.0
06/06:00am 17.4 15.4 10.3 63 3.8 SW 11 17 6 9 - - 0.0
06/05:30am 16.7 15.4 9.1 61 3.9 WSW 6 7 3 4 - - 0.0
06/05:00am 17.5 16.0 8.6 56 4.6 NW 6 9 3 5 - - 0.0
06/04:30am 18.1 15.6 8.1 52 5.1 SW 11 24 6 13 - - 0.0
06/04:00am 16.6 15.5 8.3 58 4.2 SSW 4 9 2 5 - - 0.0
06/03:30am 17.4 16.1 7.5 52 5.0 WNW 4 9 2 5 - - 0.0
06/03:00am 17.3 14.7 7.9 54 4.8 NW 11 22 6 12 - - 0.0
06/02:30am 17.1 15.2 7.7 54 4.7 WNW 7 13 4 7 - - 0.0
06/02:00am 14.6 13.3 9.2 70 2.8 WNW 6 9 3 5 - - 0.0
06/01:30am 14.8 13.8 9.0 68 3.0 WNW 4 6 2 3 - - 0.0
06/01:00am 14.5 13.2 9.3 71 2.7 NW 6 11 3 6 - - 0.0
06/12:30am 14.6 14.2 9.8 73 2.5 NNW 2 6 1 3 - - 0.0
06/12:00am 14.7 15.1 11.1 79 1.9 CALM 0 2 0 1 - - 0.0
 
Date/Time
EST
Temp
°C
App
Temp
°C
Dew
Point
Rel
Hum
%
Delta-T
°C
Wind Press
QNH
hPa
Press
MSL
hPa
Rain
since 9 am
mm
Dir
 
Spd
km/h
Gust
km/h
Spd
kts
Gust
kts
05/11:30pm 14.9 13.8 10.7 76 2.2 NNW 7 9 4 5 - - 0.0
05/11:00pm 15.6 14.5 10.6 72 2.6 NNW 7 9 4 5 - - 0.0
05/10:30pm 16.1 15.3 11.7 75 2.4 NNW 7 11 4 6 - - 0.0
05/10:00pm 16.8 16.1 12.1 74 2.6 NNW 7 11 4 6 - - 0.0
05/09:30pm 16.8 15.5 12.5 76 2.4 NW 11 13 6 7 - - 0.0
05/09:00pm 16.5 16.0 12.7 78 2.1 NW 7 9 4 5 - - 0.0
05/08:30pm 16.4 16.0 12.9 80 1.9 WNW 7 11 4 6 - - 0.0
05/08:00pm 16.4 15.9 12.2 76 2.3 WNW 6 7 3 4 - - 0.0
05/07:30pm 17.1 16.3 13.0 77 2.3 NW 9 11 5 6 - - 0.0
05/07:00pm 17.3 16.5 12.8 75 2.5 NW 9 13 5 7 - - 0.0
05/06:30pm 18.0 17.7 13.3 74 2.7 NNW 7 13 4 7 - - 0.0
05/06:00pm 18.5 18.4 13.4 72 2.9 NNW 6 15 3 8 - - 0.0
05/05:30pm 19.2 17.2 13.8 71 3.1 N 17 24 9 13 - - 0.0
05/05:00pm 19.4 18.4 13.3 68 3.5 NNE 11 17 6 9 - - 0.0
05/04:30pm 20.0 18.9 13.2 65 3.9 NNE 11 17 6 9 - - 0.0
05/04:00pm 20.6 19.7 12.6 60 4.5 NNE 9 13 5 7 - - 0.0
05/03:30pm 21.0 19.7 11.3 54 5.4 NNE 9 11 5 6 - - 0.0
05/03:00pm 21.3 20.2 10.8 51 5.8 NE 7 11 4 6 - - 0.0
05/02:30pm 20.7 19.6 9.9 50 5.8 ENE 6 7 3 4 - - 0.0
05/02:00pm 20.4 19.2 9.6 50 5.8 E 6 7 3 4 - - 0.0
05/01:30pm 21.4 20.1 9.9 48 6.2 NE 7 11 4 6 - - 0.0
05/01:00pm 21.2 19.8 9.4 47 6.3 NE 7 11 4 6 - - 0.0
05/12:30pm 21.1 19.7 9.7 48 6.1 ENE 7 13 4 7 - - 0.0
05/12:00pm 21.2 19.8 9.4 47 6.3 NE 7 11 4 6 - - 0.0
05/11:30am 20.4 18.4 8.7 47 6.1 NE 9 13 5 7 - - 0.0
05/11:00am 20.2 17.6 7.9 45 6.4 NE 11 13 6 7 - - 0.0
05/10:30am 19.8 18.0 7.9 46 6.1 NE 7 9 4 5 - - 0.0
05/10:00am 19.6 18.1 8.3 48 5.9 NE 6 7 3 4 - - 0.0
05/09:30am 19.4 17.9 8.4 49 5.7 NNW 6 7 3 4 - - 0.0
05/09:00am 18.9 18.1 8.3 50 5.5 NNW 2 4 1 2 - - 0.0
05/08:30am 17.3 16.5 6.5 49 5.3 CALM 0 4 0 2 - - 0.0
05/08:00am 16.5 15.1 7.4 55 4.5 NNW 4 4 2 2 - - 0.0
05/07:30am 14.9 12.7 6.0 55 4.3 NW 7 11 4 6 - - 0.0
05/07:00am 14.4 12.1 5.7 56 4.1 W 7 11 4 6 - - 0.0
05/06:30am 13.4 10.7 5.6 59 3.7 NNW 9 13 5 7 - - 0.0
05/06:00am 13.3 11.2 5.7 60 3.6 SSW 6 13 3 7 - - 0.0
05/05:30am 15.6 12.4 5.2 50 4.9 WNW 11 20 6 11 - - 0.0
05/05:00am 15.6 11.3 5.2 50 4.9 W 17 22 9 12 - - 0.0
05/04:30am 15.9 12.4 5.5 50 5.0 WNW 13 20 7 11 - - 0.0
05/04:00am 15.7 12.2 5.6 51 4.8 W 13 20 7 11 - - 0.0
05/03:30am 15.2 12.1 5.7 53 4.5 W 11 15 6 8 - - 0.0
05/03:00am 15.2 12.6 6.0 54 4.4 W 9 15 5 8 - - 0.0
05/02:30am 15.6 11.8 5.8 52 4.7 W 15 20 8 11 - - 0.0
05/02:00am 15.8 12.4 6.0 52 4.7 W 13 19 7 10 - - 0.0
05/01:30am 15.8 12.1 6.3 53 4.6 W 15 20 8 11 - - 0.0
05/01:00am 15.1 12.4 7.4 60 3.8 W 11 15 6 8 - - 0.0
05/12:30am 15.5 13.1 8.7 64 3.5 W 11 15 6 8 - - 0.0
05/12:00am 15.7 13.6 11.1 74 2.5 W 13 17 7 9 - - 0.0
 
Date/Time
EST
Temp
°C
App
Temp
°C
Dew
Point
Rel
Hum
%
Delta-T
°C
Wind Press
QNH
hPa
Press
MSL
hPa
Rain
since 9 am
mm
Dir
 
Spd
km/h
Gust
km/h
Spd
kts
Gust
kts
04/11:30pm 15.5 14.1 12.1 80 1.9 W 11 13 6 7 - - 0.0
04/11:00pm 15.8 15.0 12.9 83 1.6 WNW 9 11 5 6 - - 0.0
04/10:30pm 15.5 14.9 12.4 82 1.7 W 7 9 4 5 - - 0.0
04/10:00pm 16.2 15.5 13.1 82 1.7 WNW 9 13 5 7 - - 0.0
04/09:30pm 16.4 15.7 13.3 82 1.7 WNW 9 11 5 6 - - 0.0
04/09:00pm 16.6 16.4 13.7 83 1.6 W 7 9 4 5 - - 0.0
04/08:30pm 16.9 16.5 14.2 84 1.5 W 9 11 5 6 - - 0.0
04/08:00pm 17.4 16.8 14.7 84 1.6 WSW 11 15 6 8 - - 0.0
04/07:30pm 17.9 18.0 14.4 80 2.0 SW 7 11 4 6 - - 0.0
04/07:00pm 18.5 17.8 15.4 82 1.8 SSW 13 17 7 9 - - 0.0
04/06:30pm 18.9 17.8 15.4 80 2.1 SSW 15 22 8 12 - - 0.0
04/06:00pm 18.9 17.1 15.6 81 1.9 S 19 24 10 13 - - 0.0
04/05:30pm 18.9 16.6 15.8 82 1.8 SSW 22 28 12 15 - - 0.0
04/05:00pm 19.1 17.3 16.1 83 1.8 S 20 26 11 14 - - 0.0
04/04:30pm 19.1 17.0 16.1 83 1.8 S 22 30 12 16 - - 0.0
04/04:00pm 19.2 15.9 16.1 82 1.8 S 28 35 15 19 - - 0.0
04/03:30pm 19.1 15.8 16.1 83 1.8 S 28 35 15 19 - - 0.0
04/03:00pm 19.3 15.7 16.2 82 1.9 S 30 37 16 20 - - 0.0
04/02:30pm 19.6 16.3 16.1 80 2.1 S 28 35 15 19 - - 0.0
04/02:00pm 19.8 16.1 16.1 79 2.2 S 30 37 16 20 - - 0.0
04/01:30pm 20.0 15.9 15.0 73 2.9 S 30 37 16 20 - - 0.0
04/01:00pm 20.0 16.2 13.5 66 3.7 S 26 35 14 19 - - 0.0
04/12:30pm 20.3 17.6 14.7 70 3.3 S 22 32 12 17 - - 0.0
04/12:00pm 21.6 19.6 12.7 57 5.1 SW 15 26 8 14 - - 0.0
04/11:30am 22.7 19.8 9.8 44 7.0 WSW 15 26 8 14 - - 0.0
04/11:00am 21.9 19.4 9.8 46 6.5 WSW 13 24 7 13 - - 0.0
04/10:30am 21.2 16.8 8.8 45 6.6 SW 22 33 12 18 - - 0.0
04/10:00am 21.4 19.0 9.9 48 6.2 W 13 20 7 11 - - 0.0
04/09:30am 20.7 17.9 9.9 50 5.8 WNW 15 24 8 13 - - 0.0
04/09:00am 20.0 16.9 9.0 49 5.8 WNW 15 24 8 13 - - 0.0
04/08:30am 19.2 16.8 8.5 50 5.6 NW 11 15 6 8 - - 0.0
04/08:00am 18.1 16.4 8.4 53 5.0 WNW 7 15 4 8 - - 0.0
04/07:30am 15.7 14.1 8.0 60 3.9 W 6 7 3 4 - - 0.0
04/07:00am 14.0 12.3 7.5 65 3.2 NW 6 9 3 5 - - 0.0
04/06:30am 14.0 11.7 7.5 65 3.2 NNW 9 11 5 6 - - 0.0
04/06:00am 13.4 12.3 7.0 65 3.1 SSW 2 6 1 3 - - 0.0
04/05:30am 14.3 12.5 7.1 62 3.5 WNW 6 9 3 5 - - 0.0
04/05:00am 14.1 12.8 7.6 65 3.2 WNW 4 6 2 3 - - 0.0
04/04:30am 15.1 12.3 6.9 58 4.0 NW 11 17 6 9 - - 0.0
04/04:00am 15.6 12.3 6.6 55 4.4 NW 13 17 7 9 - - 0.0
04/03:30am 16.4 13.3 7.1 54 4.6 NNW 13 20 7 11 - - 0.0
04/03:00am 16.1 13.5 7.8 58 4.2 NNW 11 17 6 9 - - 0.0
04/02:30am 16.3 13.8 8.3 59 4.1 N 11 17 6 9 - - 0.0
04/02:00am 16.7 14.1 7.6 55 4.6 NNW 11 17 6 9 - - 0.0
04/01:30am 17.7 15.0 7.2 50 5.3 N 11 17 6 9 - - 0.0
04/01:00am 17.8 15.1 7.2 50 5.3 NNW 11 17 6 9 - - 0.0
04/12:30am 17.9 15.1 7.0 49 5.5 NNW 11 17 6 9 - - 0.0
04/12:00am 17.4 15.0 7.2 51 5.1 NNW 9 13 5 7 - - 0.0
 
Date/Time
EST
Temp
°C
App
Temp
°C
Dew
Point
Rel
Hum
%
Delta-T
°C
Wind Press
QNH
hPa
Press
MSL
hPa
Rain
since 9 am
mm
Dir
 
Spd
km/h
Gust
km/h
Spd
kts
Gust
kts
03/11:30pm 18.0 15.6 7.1 49 5.5 NNW 9 13 5 7 - - 0.0
03/11:00pm 18.2 15.9 7.3 49 5.5 NW 9 15 5 8 - - 0.0
03/10:30pm 17.6 15.7 7.4 51 5.1 NNW 7 15 4 8 - - 0.0
03/10:00pm 16.8 15.0 7.2 53 4.8 WNW 6 13 3 7 - - 0.0
03/09:30pm 18.0 16.2 7.1 49 5.5 NNW 6 9 3 5 - - 0.0
03/09:00pm 18.5 16.7 7.9 50 5.4 N 7 13 4 7 - - 0.0
03/08:30pm 19.3 16.5 6.8 44 6.3 NNW 11 19 6 10 - - 0.0
03/08:00pm 19.0 16.5 6.5 44 6.2 NW 9 13 5 7 - - 0.0
03/07:30pm 19.4 16.5 6.5 43 6.5 NNW 11 22 6 12 - - 0.0
03/07:00pm 19.7 17.1 6.1 41 6.8 NNW 9 19 5 10 - - 0.0
03/06:30pm 19.9 17.0 6.3 41 6.8 NNW 11 19 6 10 - - 0.0
03/06:00pm 20.8 17.4 6.0 38 7.4 WNW 13 20 7 11 - - 0.0
03/05:30pm 21.3 17.4 5.2 35 8.0 NW 15 26 8 14 - - 0.0

Other Formats:

Comma delimited format used in spreadsheet applications
http://www.bom.gov.au/fwo/IDN60801/IDN60801.95749.axf

JavaScript Object Notation format (JSON) in row-major order
http://www.bom.gov.au/fwo/IDN60801/IDN60801.95749.json